createdAt,value
2022-12-19T00:01:48.482Z,26.90
2022-12-19T00:05:49.888Z,24.57
2022-12-19T00:09:51.168Z,24.83
2022-12-19T00:13:52.766Z,23.30
2022-12-19T00:17:54.013Z,24.40
2022-12-19T00:21:55.194Z,27.27
2022-12-19T00:26:09.344Z,27.30
2022-12-19T00:30:11.498Z,25.60
2022-12-19T00:34:13.188Z,26.47
2022-12-19T00:38:14.717Z,28.37
2022-12-19T00:42:16.323Z,25.07
2022-12-19T00:46:17.494Z,25.97
2022-12-19T00:50:18.739Z,24.83
2022-12-19T00:54:19.836Z,27.60
2022-12-19T00:58:24.155Z,23.93
2022-12-19T01:02:25.414Z,25.30
2022-12-19T01:06:27.075Z,27.70
2022-12-19T01:10:28.541Z,23.27
2022-12-19T01:14:29.621Z,27.80
2022-12-19T01:18:30.765Z,24.10
2022-12-19T01:22:32.242Z,25.07
2022-12-19T01:26:33.415Z,26.33
2022-12-19T01:30:34.691Z,26.37
2022-12-19T01:34:36.870Z,23.27
2022-12-19T01:38:37.961Z,24.60
2022-12-19T01:42:39.130Z,25.27
2022-12-19T01:46:47.070Z,26.27
2022-12-19T01:50:58.816Z,25.90
2022-12-19T01:54:55.179Z,23.50
2022-12-19T01:59:06.457Z,23.23
2022-12-19T02:03:19.879Z,24.73
2022-12-19T02:07:23.812Z,23.80
2022-12-19T02:11:25.412Z,25.83
2022-12-19T02:15:30.382Z,24.43
2022-12-19T02:20:09.551Z,24.57
2022-12-19T02:24:30.313Z,25.50
2022-12-19T02:28:40.048Z,24.90
2022-12-19T02:32:51.080Z,25.80
2022-12-19T02:36:56.192Z,23.73
2022-12-19T02:41:16.778Z,26.53
2022-12-19T02:45:22.767Z,24.53
2022-12-19T02:49:31.036Z,26.80
2022-12-19T02:53:27.139Z,24.53
2022-12-19T02:57:53.386Z,24.30
2022-12-19T03:02:13.714Z,25.80
2022-12-19T03:06:33.823Z,23.40
2022-12-19T03:10:50.925Z,26.17
2022-12-19T03:14:53.667Z,22.70
2022-12-19T03:18:56.660Z,25.10
2022-12-19T03:22:57.906Z,27.70
2022-12-19T03:27:14.853Z,28.30
2022-12-19T03:31:18.777Z,27.40
2022-12-19T03:35:23.755Z,26.20
2022-12-19T03:39:28.172Z,26.83
2022-12-19T03:43:31.012Z,25.03
2022-12-19T03:47:45.170Z,27.50
2022-12-19T03:51:59.342Z,28.10
2022-12-19T03:56:03.007Z,24.23
2022-12-19T04:04:16.190Z,26.83
2022-12-19T04:08:18.265Z,27.67
2022-12-19T04:12:31.396Z,27.20
2022-12-19T04:17:15.408Z,26.67
2022-12-19T04:21:23.158Z,27.40
2022-12-19T04:25:32.252Z,28.00
2022-12-19T04:29:36.214Z,27.47
2022-12-19T04:33:37.406Z,28.80
2022-12-19T04:37:39.001Z,28.10
2022-12-19T04:41:40.175Z,28.10
2022-12-19T04:45:41.464Z,26.17
2022-12-19T04:49:42.963Z,28.47
2022-12-19T04:53:44.125Z,28.57
2022-12-19T04:57:45.317Z,27.83
2022-12-19T05:01:46.640Z,30.17
2022-12-19T05:05:47.932Z,30.20
2022-12-19T05:09:49.119Z,28.40
2022-12-19T05:13:51.877Z,26.03
2022-12-19T05:17:53.077Z,27.93
2022-12-19T05:21:54.245Z,28.70
2022-12-19T05:26:01.566Z,27.80
2022-12-19T05:30:03.700Z,27.50
2022-12-19T05:34:04.870Z,28.33
2022-12-19T05:38:06.157Z,28.97
2022-12-19T05:42:10.943Z,28.37
2022-12-19T05:46:10.748Z,28.37
2022-12-19T05:50:16.558Z,29.37
2022-12-19T05:54:17.773Z,28.50
2022-12-19T05:58:18.953Z,28.83
2022-12-19T06:02:20.743Z,28.70
2022-12-19T06:06:24.926Z,24.03
2022-12-19T06:10:26.103Z,28.80
2022-12-19T06:14:27.278Z,29.90
2022-12-19T06:18:29.182Z,29.97
2022-12-19T06:22:30.349Z,26.47
2022-12-19T06:26:31.552Z,27.90
2022-12-19T06:30:33.218Z,29.20
2022-12-19T06:35:02.868Z,31.37
2022-12-19T06:38:38.143Z,28.40
2022-12-19T06:42:39.353Z,28.70
2022-12-19T06:46:41.274Z,27.37
2022-12-19T06:50:43.246Z,28.03
2022-12-19T06:54:44.443Z,29.17
2022-12-19T06:58:46.136Z,29.63
2022-12-19T07:02:50.776Z,32.60
2022-12-19T07:06:52.183Z,31.27
2022-12-19T07:10:53.439Z,30.40
2022-12-19T07:14:54.568Z,30.17
2022-12-19T07:18:55.968Z,30.30
2022-12-19T07:22:57.167Z,29.30
2022-12-19T07:26:58.492Z,31.80
2022-12-19T07:30:59.694Z,28.13
2022-12-19T07:35:02.563Z,30.10
2022-12-19T07:39:03.713Z,29.93
2022-12-19T07:43:06.102Z,30.53
2022-12-19T07:47:08.423Z,29.03
2022-12-19T07:51:09.619Z,27.80
2022-12-19T07:55:10.793Z,27.83
2022-12-19T07:59:12.410Z,15.40
2022-12-19T08:03:13.629Z,30.80
2022-12-19T08:07:15.021Z,34.50
2022-12-19T08:11:20.984Z,33.47
2022-12-19T08:15:22.168Z,30.50
2022-12-19T08:19:27.270Z,29.80
2022-12-19T08:23:26.630Z,31.10
2022-12-19T08:27:27.832Z,31.27
2022-12-19T08:31:29.145Z,30.10
2022-12-19T08:35:30.328Z,29.20
2022-12-19T08:39:31.612Z,29.30
2022-12-19T08:43:33.160Z,46.03
2022-12-19T08:47:34.367Z,31.67
2022-12-19T08:51:35.563Z,30.70
2022-12-19T08:55:36.784Z,30.83
2022-12-19T08:59:37.990Z,30.27
2022-12-19T09:03:40.558Z,33.30
2022-12-19T09:07:43.541Z,27.50
2022-12-19T09:11:46.660Z,32.53
2022-12-19T09:15:47.942Z,35.40
2022-12-19T09:19:49.286Z,31.20
2022-12-19T09:23:53.503Z,32.00
2022-12-19T09:28:26.306Z,33.73
2022-12-19T09:31:57.721Z,33.37
2022-12-19T09:35:59.627Z,33.60
2022-12-19T09:40:01.524Z,32.40
2022-12-19T09:44:37.976Z,33.73
2022-12-19T09:48:39.996Z,30.77
2022-12-19T09:52:44.983Z,32.77
2022-12-19T09:56:47.770Z,30.07
2022-12-19T10:01:00.051Z,29.70
2022-12-19T10:05:25.034Z,33.80
2022-12-19T10:10:05.981Z,31.77
2022-12-19T10:13:57.935Z,32.00
2022-12-19T10:18:27.588Z,35.53
2022-12-19T10:22:52.732Z,33.43
2022-12-19T10:26:59.847Z,31.17
2022-12-19T10:31:21.060Z,33.30
2022-12-19T10:35:19.266Z,29.77
2022-12-19T10:39:30.309Z,32.13
2022-12-19T10:43:52.328Z,31.60
2022-12-19T10:47:57.433Z,34.10
2022-12-19T10:52:04.599Z,32.27
2022-12-19T10:56:14.860Z,29.13
2022-12-19T11:00:18.310Z,30.60
2022-12-19T11:04:32.408Z,32.70
2022-12-19T11:08:36.139Z,28.80
2022-12-19T11:14:41.002Z,30.00
2022-12-19T11:24:10.059Z,30.60
2022-12-19T11:29:34.802Z,32.50
2022-12-19T11:29:41.867Z,32.53
2022-12-19T11:33:28.116Z,31.17
2022-12-19T11:37:39.652Z,31.63
2022-12-19T11:41:44.753Z,31.37
2022-12-19T11:45:56.253Z,29.40
2022-12-19T11:50:01.472Z,30.33
2022-12-19T11:54:09.070Z,30.77
2022-12-19T11:58:12.044Z,30.70
2022-12-19T12:02:35.394Z,31.00
2022-12-19T12:06:46.485Z,30.63
2022-12-19T12:18:11.302Z,31.20
2022-12-19T12:27:59.870Z,34.23
2022-12-19T12:31:00.804Z,34.37
2022-12-19T12:31:40.085Z,33.43
2022-12-19T12:31:58.822Z,32.03
2022-12-19T12:35:30.673Z,31.50
2022-12-19T12:38:18.916Z,33.50
2022-12-19T12:42:03.274Z,33.73
2022-12-19T12:46:06.828Z,32.83
2022-12-19T12:50:11.924Z,32.30
2022-12-19T12:54:15.551Z,32.43
2022-12-19T12:58:53.688Z,33.97
2022-12-19T13:03:07.168Z,32.87
2022-12-19T13:07:21.238Z,35.10
2022-12-19T13:11:44.573Z,33.77
2022-12-19T13:15:45.847Z,40.37
2022-12-19T13:20:05.175Z,38.13
2022-12-19T13:24:16.416Z,37.30
2022-12-19T13:28:24.781Z,33.20
2022-12-19T13:32:41.598Z,33.10
2022-12-19T13:39:48.762Z,36.47
2022-12-19T13:41:01.894Z,41.87
2022-12-19T13:45:19.189Z,34.70
2022-12-19T13:49:28.523Z,35.10
2022-12-19T13:53:30.922Z,30.90
2022-12-19T13:57:35.986Z,31.73
2022-12-19T14:01:39.824Z,34.37
2022-12-19T14:06:17.204Z,33.50
2022-12-19T14:11:30.407Z,33.90
2022-12-19T14:14:23.897Z,33.43
2022-12-19T14:18:42.877Z,30.97
2022-12-19T14:22:27.740Z,29.20
2022-12-19T14:28:20.041Z,33.90
2022-12-19T14:30:37.498Z,30.83
2022-12-19T14:35:47.701Z,31.57
2022-12-19T14:39:24.342Z,31.50
2022-12-19T14:44:00.553Z,31.77
2022-12-19T14:54:02.814Z,36.63
2022-12-19T14:54:37.068Z,29.07
2022-12-19T14:56:16.534Z,31.67
2022-12-19T14:59:45.382Z,29.80
2022-12-19T15:04:49.312Z,30.77
2022-12-19T15:08:09.525Z,28.57
2022-12-19T15:14:49.312Z,29.97
2022-12-19T15:16:34.879Z,32.50
2022-12-19T15:20:36.117Z,28.90
2022-12-19T15:24:37.342Z,33.90
2022-12-19T15:28:45.315Z,28.40
2022-12-19T15:32:47.618Z,28.03
2022-12-19T15:36:52.475Z,24.83
2022-12-19T15:40:54.589Z,31.20
2022-12-19T15:44:58.351Z,34.13
2022-12-19T15:49:01.011Z,31.57
2022-12-19T15:53:06.076Z,32.80
2022-12-19T15:57:11.158Z,31.17
2022-12-19T16:01:13.233Z,37.47
2022-12-19T16:05:16.534Z,35.50
2022-12-19T16:09:26.959Z,30.50
2022-12-19T16:13:34.531Z,32.03
2022-12-19T16:17:37.421Z,35.07
2022-12-19T16:21:38.649Z,36.53
2022-12-19T16:25:43.054Z,36.20
2022-12-19T16:29:45.531Z,35.40
2022-12-19T16:33:46.770Z,36.27
2022-12-19T16:37:48.751Z,39.40
2022-12-19T16:41:50.446Z,51.20
2022-12-19T16:45:53.729Z,53.60
2022-12-19T16:49:55.446Z,43.37
2022-12-19T16:53:59.670Z,37.97
2022-12-19T16:58:01.782Z,41.67
2022-12-19T17:02:35.876Z,39.93
2022-12-19T17:06:37.151Z,40.43
2022-12-19T17:10:40.436Z,42.27
2022-12-19T17:14:42.337Z,41.37
2022-12-19T17:18:45.014Z,51.70
2022-12-19T17:22:47.195Z,53.50
2022-12-19T17:26:48.402Z,50.80
2022-12-19T17:30:56.755Z,47.23
2022-12-19T17:34:58.043Z,47.93
2022-12-19T17:38:59.637Z,41.37
2022-12-19T17:43:01.859Z,46.27
2022-12-19T17:47:03.955Z,49.17
2022-12-19T17:51:05.428Z,50.83
2022-12-19T17:55:27.260Z,45.07
2022-12-19T17:59:28.471Z,46.93
2022-12-19T18:03:29.798Z,44.63
2022-12-19T18:07:31.253Z,44.00
2022-12-19T18:11:38.311Z,43.67
2022-12-19T18:15:35.601Z,46.63
2022-12-19T18:19:36.760Z,38.33
2022-12-19T18:23:37.951Z,40.60
2022-12-19T18:27:39.130Z,37.07
2022-12-19T18:31:44.853Z,32.37
2022-12-19T18:35:46.974Z,31.70
2022-12-19T18:39:48.371Z,31.47
2022-12-19T18:43:49.642Z,31.47
2022-12-19T18:47:59.505Z,31.50
2022-12-19T18:52:01.575Z,30.87
2022-12-19T18:56:05.306Z,30.30
2022-12-19T19:00:09.957Z,32.83
2022-12-19T19:04:12.533Z,31.20
2022-12-19T19:08:19.624Z,33.60
2022-12-19T19:12:21.414Z,29.73
2022-12-19T19:16:24.946Z,33.20
2022-12-19T19:20:32.145Z,49.07
2022-12-19T19:24:33.298Z,42.47
2022-12-19T19:28:36.403Z,39.17
2022-12-19T19:32:41.378Z,42.33
2022-12-19T19:36:44.957Z,42.70
2022-12-19T19:40:46.247Z,48.43
2022-12-19T19:44:47.464Z,44.33
2022-12-19T19:49:08.533Z,40.50
2022-12-19T19:53:09.713Z,38.67
2022-12-19T19:57:10.963Z,38.20
2022-12-19T20:01:13.514Z,53.23
2022-12-19T20:05:14.923Z,48.60
2022-12-19T20:09:16.614Z,46.77
2022-12-19T20:13:17.839Z,45.70
2022-12-19T20:17:19.121Z,41.97
2022-12-19T20:21:21.728Z,48.53
2022-12-19T20:25:22.936Z,48.60
2022-12-19T20:29:24.364Z,46.10
2022-12-19T20:33:25.986Z,49.60
2022-12-19T20:37:27.214Z,52.50
2022-12-19T20:41:28.421Z,55.27
2022-12-19T20:45:30.227Z,61.80
2022-12-19T20:49:31.446Z,51.80
2022-12-19T20:53:34.662Z,52.07
2022-12-19T20:57:36.052Z,49.20
2022-12-19T21:01:38.084Z,44.73
2022-12-19T21:05:40.867Z,35.20
2022-12-19T21:09:43.994Z,31.60
2022-12-19T21:13:45.163Z,32.63
2022-12-19T21:17:46.412Z,34.27
2022-12-19T21:21:47.576Z,34.63
2022-12-19T21:25:48.879Z,39.57
2022-12-19T21:29:50.058Z,32.30
2022-12-19T21:33:58.413Z,40.90
2022-12-19T21:37:59.798Z,40.57
2022-12-19T21:42:01.561Z,35.20
2022-12-19T21:46:05.696Z,40.00
2022-12-19T21:50:11.632Z,40.27
2022-12-19T21:54:12.830Z,44.40
2022-12-19T21:58:13.933Z,39.20
2022-12-19T22:02:15.525Z,43.63
2022-12-19T22:06:27.298Z,41.70
2022-12-19T22:10:23.506Z,47.27
2022-12-19T22:14:24.849Z,44.43
2022-12-19T22:18:27.012Z,44.80
2022-12-19T22:22:28.205Z,46.40
2022-12-19T22:26:30.748Z,43.07
2022-12-19T22:30:34.054Z,47.10
2022-12-19T22:34:35.247Z,42.97
2022-12-19T22:38:39.713Z,40.53
2022-12-19T22:42:41.014Z,41.60
2022-12-19T22:46:42.492Z,40.60
2022-12-19T22:50:46.257Z,36.50
2022-12-19T22:54:47.480Z,38.40
2022-12-19T22:58:50.452Z,35.83
2022-12-19T23:02:51.823Z,32.73
2022-12-19T23:06:53.151Z,34.07
2022-12-19T23:10:55.170Z,33.33
2022-12-19T23:14:56.551Z,36.27
2022-12-19T23:18:57.921Z,34.93
2022-12-19T23:22:59.102Z,32.00
2022-12-19T23:27:01.860Z,29.10
2022-12-19T23:31:05.785Z,31.23
2022-12-19T23:35:07.508Z,32.60
2022-12-19T23:39:10.405Z,33.57
2022-12-19T23:43:11.598Z,34.83
2022-12-19T23:47:12.909Z,33.10
2022-12-19T23:51:17.115Z,34.37
2022-12-19T23:55:18.317Z,31.90
2022-12-19T23:59:19.616Z,30.57
